Time;durP1;ratioP1;P1;durP2;ratioP2;P2;SDS_P1;SDS_P2;PMS_P1;PMS_P2;Temp;Humidity;BMP_temperature;BMP_pressure;BME280_temperature;BME280_humidity;BME280_pressure;Samples;Min_cycle;Max_cycle;Signal;HPM_P1;HPM_P2
2024/03/04 00:02:36;;;;;;;4.12;1.52;;;9.80;99.90;;;;;;4425042;32;20598;-66
2024/03/04 00:05:01;;;;;;;2.25;1.23;;;9.80;99.90;;;;;;4425774;32;20061;-65
2024/03/04 00:07:26;;;;;;;2.65;1.33;;;9.80;99.90;;;;;;4426426;32;20089;-66
2024/03/04 00:09:52;;;;;;;1.25;1.15;;;9.80;99.90;;;;;;4422465;32;20426;-65
2024/03/04 00:12:17;;;;;;;3.55;1.73;;;9.80;99.90;;;;;;4430190;32;20082;-65
2024/03/04 00:14:43;;;;;;;2.42;0.95;;;9.80;99.90;;;;;;4430081;32;20554;-66
2024/03/04 00:17:09;;;;;;;2.47;1.67;;;9.70;99.90;;;;;;4429327;32;20084;-66
2024/03/04 00:19:36;;;;;;;3.08;1.50;;;9.70;99.90;;;;;;4419290;32;20093;-67
2024/03/04 00:22:03;;;;;;;2.65;1.95;;;9.60;99.90;;;;;;4400945;32;20077;-62
2024/03/04 00:24:29;;;;;;;1.25;1.12;;;9.70;99.90;;;;;;4426991;32;20070;-63
2024/03/04 00:26:54;;;;;;;7.05;2.90;;;9.60;99.90;;;;;;4427533;32;20081;-63
2024/03/04 00:29:20;;;;;;;0.80;0.80;;;9.60;99.90;;;;;;4426971;32;20172;-63
2024/03/04 00:31:45;;;;;;;4.37;1.17;;;9.60;99.90;;;;;;4427452;32;20087;-63
2024/03/04 00:34:12;;;;;;;1.48;0.75;;;9.60;99.90;;;;;;4429044;32;20086;-63
2024/03/04 00:36:38;;;;;;;4.45;2.12;;;9.50;99.90;;;;;;4426697;32;20057;-63
2024/03/04 00:39:03;;;;;;;1.10;1.00;;;9.50;99.90;;;;;;4411264;32;20060;-63
2024/03/04 00:41:29;;;;;;;1.42;1.30;;;9.50;99.90;;;;;;4424890;32;20108;-63
2024/03/04 00:43:55;;;;;;;1.02;0.95;;;9.60;99.90;;;;;;4413401;32;20184;-63
2024/03/04 00:46:21;;;;;;;1.10;1.10;;;9.50;99.90;;;;;;4414525;32;20076;-63
2024/03/04 00:48:47;;;;;;;1.20;1.10;;;9.50;99.90;;;;;;4411930;32;20527;-63
2024/03/04 00:51:13;;;;;;;1.27;1.17;;;9.50;99.90;;;;;;4430561;32;20544;-63
2024/03/04 00:53:39;;;;;;;2.00;1.30;;;9.50;99.90;;;;;;4430718;32;20068;-64
2024/03/04 00:56:05;;;;;;;1.10;1.02;;;9.50;99.90;;;;;;4429499;32;20104;-63
2024/03/04 00:58:31;;;;;;;5.47;1.58;;;9.40;99.90;;;;;;4415694;32;20623;-63
2024/03/04 01:00:57;;;;;;;5.87;1.17;;;9.40;99.90;;;;;;4427509;32;20511;-63
2024/03/04 01:03:23;;;;;;;1.87;1.60;;;9.40;99.90;;;;;;4427015;32;20090;-63
2024/03/04 01:05:48;;;;;;;14.90;1.67;;;9.40;99.90;;;;;;4433130;32;20505;-63
2024/03/04 01:08:15;;;;;;;2.95;1.23;;;9.30;99.90;;;;;;4423062;32;20089;-63
2024/03/04 01:10:43;;;;;;;1.20;1.05;;;9.30;99.90;;;;;;4427341;32;20108;-63
2024/03/04 01:13:09;;;;;;;1.10;0.88;;;9.30;99.90;;;;;;4426798;32;20124;-63
2024/03/04 01:15:35;;;;;;;2.83;1.90;;;9.20;99.90;;;;;;4415640;32;20221;-63
2024/03/04 01:18:02;;;;;;;3.37;2.28;;;9.20;99.90;;;;;;4425663;32;20081;-63
2024/03/04 01:20:28;;;;;;;1.60;1.20;;;9.20;99.90;;;;;;4429575;32;20074;-63
2024/03/04 01:22:53;;;;;;;3.85;1.25;;;9.20;99.90;;;;;;4427296;32;20090;-63
2024/03/04 01:25:19;;;;;;;9.07;2.50;;;9.20;99.90;;;;;;4424668;32;20077;-62
2024/03/04 01:27:44;;;;;;;2.15;1.35;;;9.20;99.90;;;;;;4425723;32;20064;-63
2024/03/04 01:30:13;;;;;;;1.85;1.65;;;9.20;99.90;;;;;;4416230;32;20074;-62
2024/03/04 01:32:40;;;;;;;2.85;1.23;;;9.20;99.90;;;;;;4425830;32;20596;-60
2024/03/04 01:35:07;;;;;;;3.70;1.60;;;9.20;99.90;;;;;;4426808;32;20450;-61
2024/03/04 01:37:33;;;;;;;3.42;1.77;;;9.10;99.90;;;;;;4429489;32;20537;-60
2024/03/04 01:39:59;;;;;;;3.47;1.70;;;9.10;99.90;;;;;;4428532;32;20077;-62
2024/03/04 01:42:25;;;;;;;6.12;1.67;;;9.10;99.90;;;;;;4413317;32;20073;-61
2024/03/04 01:44:50;;;;;;;3.10;1.98;;;9.00;99.90;;;;;;4429440;32;20118;-61
2024/03/04 01:47:20;;;;;;;1.33;1.23;;;9.00;99.90;;;;;;4427173;32;20406;-62
2024/03/04 01:49:47;;;;;;;2.30;1.42;;;9.00;99.90;;;;;;4415141;32;20133;-61
2024/03/04 01:52:14;;;;;;;8.13;3.12;;;9.00;99.90;;;;;;4413437;32;20873;-60
2024/03/04 01:54:43;;;;;;;6.70;2.05;;;9.00;99.90;;;;;;4413094;32;20072;-63
2024/03/04 01:57:11;;;;;;;1.75;1.35;;;8.90;99.90;;;;;;4427434;32;20098;-63
2024/03/04 01:59:38;;;;;;;1.27;1.17;;;8.90;99.90;;;;;;4427014;32;20077;-63
2024/03/04 02:02:05;;;;;;;3.45;1.77;;;8.90;99.90;;;;;;4430469;32;20061;-62
2024/03/04 02:04:32;;;;;;;5.40;1.25;;;8.80;99.90;;;;;;4431267;32;20077;-62
2024/03/04 02:07:00;;;;;;;8.18;2.90;;;8.80;99.90;;;;;;4418571;32;20072;-62
2024/03/04 02:09:27;;;;;;;1.62;1.52;;;8.80;99.90;;;;;;4416280;32;20094;-62
2024/03/04 02:11:54;;;;;;;3.05;2.17;;;8.80;99.90;;;;;;4410351;32;20085;-63
2024/03/04 02:14:20;;;;;;;2.87;1.75;;;8.80;99.90;;;;;;4427409;32;20085;-62
2024/03/04 02:16:45;;;;;;;2.80;1.35;;;8.80;99.90;;;;;;4420080;32;20090;-62
2024/03/04 02:19:14;;;;;;;1.55;1.42;;;8.80;99.90;;;;;;4403001;32;20134;-62
2024/03/04 02:21:48;;;;;;;1.87;1.08;;;8.80;99.90;;;;;;4427543;32;20077;-62
2024/03/04 02:24:14;;;;;;;1.80;0.77;;;8.70;99.90;;;;;;4425496;32;20069;-62
2024/03/04 02:26:40;;;;;;;11.00;2.97;;;8.70;99.90;;;;;;4424412;32;20105;-62
2024/03/04 02:29:06;;;;;;;3.08;1.95;;;8.70;99.90;;;;;;4424479;32;20079;-62
2024/03/04 02:31:31;;;;;;;6.07;1.92;;;8.60;99.90;;;;;;4427015;32;20127;-62
2024/03/04 02:33:58;;;;;;;1.87;1.40;;;8.60;99.90;;;;;;4427758;32;20505;-62
2024/03/04 02:36:24;;;;;;;10.55;2.37;;;8.70;99.90;;;;;;4426471;32;20098;-62
2024/03/04 02:38:51;;;;;;;2.70;1.75;;;8.70;99.90;;;;;;4412409;32;20145;-61
2024/03/04 02:41:18;;;;;;;6.82;2.30;;;8.70;99.90;;;;;;4422062;32;20080;-62
2024/03/04 02:43:46;;;;;;;7.15;2.00;;;8.60;99.90;;;;;;4424086;32;20073;-62
2024/03/04 02:46:11;;;;;;;1.60;1.40;;;8.60;99.90;;;;;;4421356;32;20434;-62
2024/03/04 02:48:37;;;;;;;2.70;1.42;;;8.60;99.90;;;;;;4426882;32;20057;-62
2024/03/04 02:51:02;;;;;;;4.00;2.60;;;8.60;99.90;;;;;;4426056;32;20095;-62
2024/03/04 02:53:28;;;;;;;10.55;1.92;;;8.60;99.90;;;;;;4425025;32;20061;-64
2024/03/04 02:55:53;;;;;;;5.65;2.30;;;8.60;99.90;;;;;;4425079;32;20077;-63
2024/03/04 02:58:19;;;;;;;3.95;1.42;;;8.60;99.90;;;;;;4428274;32;20077;-62
2024/03/04 03:00:44;;;;;;;19.98;3.37;;;8.50;99.90;;;;;;4426206;32;20136;-64
2024/03/04 03:03:10;;;;;;;3.95;2.70;;;8.50;99.90;;;;;;4427413;32;20061;-64
2024/03/04 03:05:35;;;;;;;6.03;2.08;;;8.50;99.90;;;;;;4425659;32;20081;-63
2024/03/04 03:08:01;;;;;;;1.30;1.20;;;8.50;99.90;;;;;;4425886;32;20086;-62
2024/03/04 03:10:28;;;;;;;2.62;1.85;;;8.60;99.90;;;;;;4426421;32;20121;-63
2024/03/04 03:12:53;;;;;;;2.50;1.12;;;8.50;99.90;;;;;;4425272;32;20582;-62
2024/03/04 03:15:19;;;;;;;11.23;1.85;;;8.40;99.90;;;;;;4426900;32;20081;-62
2024/03/04 03:17:44;;;;;;;7.47;2.28;;;8.40;99.90;;;;;;4426258;32;20517;-63
2024/03/04 03:20:16;;;;;;;2.83;1.83;;;8.40;99.90;;;;;;4428277;32;20544;-62
2024/03/04 03:22:44;;;;;;;5.15;2.08;;;8.40;99.90;;;;;;4425849;32;20077;-62
2024/03/04 03:25:11;;;;;;;5.78;2.53;;;8.40;99.90;;;;;;4424453;32;20120;-63
2024/03/04 03:27:37;;;;;;;2.55;1.67;;;8.30;99.90;;;;;;4425592;32;20077;-63
2024/03/04 03:30:04;;;;;;;2.97;1.80;;;8.30;99.90;;;;;;4428083;32;20773;-64
2024/03/04 03:32:30;;;;;;;6.28;2.12;;;8.40;99.90;;;;;;4429705;32;20060;-62
2024/03/04 03:34:56;;;;;;;5.22;2.10;;;8.40;99.90;;;;;;4427311;32;20550;-62
2024/03/04 03:37:21;;;;;;;9.10;1.90;;;8.40;99.90;;;;;;4426088;32;20857;-64
2024/03/04 03:39:47;;;;;;;3.03;2.22;;;8.40;99.90;;;;;;4428621;32;20420;-62
2024/03/04 03:42:13;;;;;;;8.80;2.10;;;8.40;99.90;;;;;;4424448;32;20504;-63
2024/03/04 03:44:39;;;;;;;5.47;2.67;;;8.40;99.90;;;;;;4431834;32;20077;-62
2024/03/04 03:47:04;;;;;;;5.43;2.50;;;8.40;99.90;;;;;;4427697;32;20431;-64
2024/03/04 03:49:30;;;;;;;7.50;2.62;;;8.30;99.90;;;;;;4427213;32;20131;-63
2024/03/04 03:51:55;;;;;;;1.87;1.73;;;8.30;99.90;;;;;;4426015;32;20077;-63
2024/03/04 03:54:21;;;;;;;10.45;2.72;;;8.30;99.90;;;;;;4428498;32;20100;-63
2024/03/04 03:56:46;;;;;;;1.37;1.27;;;8.30;99.90;;;;;;4425008;32;20085;-63
2024/03/04 03:59:11;;;;;;;6.47;2.87;;;8.30;99.90;;;;;;4422432;32;20069;-63
2024/03/04 04:01:37;;;;;;;16.30;2.67;;;8.30;99.90;;;;;;4422779;32;20069;-64
2024/03/04 04:04:03;;;;;;;2.12;1.48;;;8.30;99.90;;;;;;4422323;32;20088;-64
2024/03/04 04:06:28;;;;;;;7.18;2.67;;;8.30;99.90;;;;;;4422399;32;20061;-64
2024/03/04 04:08:53;;;;;;;2.80;1.65;;;8.30;99.90;;;;;;4425974;32;20069;-64
2024/03/04 04:11:19;;;;;;;2.30;2.12;;;8.20;99.90;;;;;;4423662;32;20073;-62
2024/03/04 04:13:45;;;;;;;3.10;2.00;;;8.20;99.90;;;;;;4427737;32;20426;-62
2024/03/04 04:16:11;;;;;;;2.95;1.95;;;8.20;99.90;;;;;;4427528;32;20070;-62
2024/03/04 04:18:36;;;;;;;3.00;2.08;;;8.20;99.90;;;;;;4422145;32;20102;-63
2024/03/04 04:21:06;;;;;;;3.15;2.10;;;8.30;99.90;;;;;;4423548;32;20080;-64
2024/03/04 04:23:33;;;;;;;3.75;2.40;;;8.20;99.90;;;;;;4420177;32;20084;-62
2024/03/04 04:25:59;;;;;;;2.45;2.17;;;8.20;99.90;;;;;;4422842;32;20528;-61
2024/03/04 04:28:25;;;;;;;4.72;2.45;;;8.20;99.90;;;;;;4425151;32;20130;-62
2024/03/04 04:30:51;;;;;;;10.23;3.28;;;8.20;99.90;;;;;;4411366;32;20135;-62
2024/03/04 04:33:17;;;;;;;3.00;1.62;;;8.10;99.90;;;;;;4423919;32;20090;-62
2024/03/04 04:35:43;;;;;;;7.97;2.00;;;8.20;99.90;;;;;;4425302;32;20410;-62
2024/03/04 04:38:08;;;;;;;1.77;1.30;;;8.20;99.90;;;;;;4423644;32;20098;-63
2024/03/04 04:40:34;;;;;;;1.92;1.55;;;8.20;99.90;;;;;;4425900;32;20117;-63
2024/03/04 04:42:59;;;;;;;1.37;1.25;;;8.10;99.90;;;;;;4422573;32;20077;-65
2024/03/04 04:45:26;;;;;;;5.35;2.17;;;8.10;99.90;;;;;;4424230;32;20065;-62
2024/03/04 04:47:52;;;;;;;0.80;0.80;;;8.10;99.90;;;;;;4424156;32;20652;-62
2024/03/04 04:50:18;;;;;;;3.47;2.05;;;8.10;99.90;;;;;;4422837;32;20070;-62
2024/03/04 04:52:43;;;;;;;1.83;1.52;;;8.00;99.90;;;;;;4426035;32;20068;-64
2024/03/04 04:55:09;;;;;;;1.48;1.35;;;8.00;99.90;;;;;;4426113;32;20073;-63
2024/03/04 04:57:35;;;;;;;6.47;1.58;;;8.00;99.90;;;;;;4425521;32;20106;-63
2024/03/04 05:00:00;;;;;;;3.60;1.92;;;8.00;99.90;;;;;;4427316;32;20070;-64
2024/03/04 05:02:25;;;;;;;16.15;3.75;;;7.90;99.90;;;;;;4430969;32;20069;-63
2024/03/04 05:04:51;;;;;;;14.82;2.08;;;7.90;99.90;;;;;;4430359;32;20053;-63
2024/03/04 05:07:16;;;;;;;3.03;1.87;;;8.00;99.90;;;;;;4430839;32;20086;-63
2024/03/04 05:09:42;;;;;;;4.68;1.77;;;8.00;99.90;;;;;;4429566;32;20120;-63
2024/03/04 05:12:09;;;;;;;3.95;2.00;;;7.90;99.90;;;;;;4415969;32;20064;-63
2024/03/04 05:14:35;;;;;;;1.92;1.75;;;7.90;99.90;;;;;;4427237;32;20494;-63
2024/03/04 05:17:00;;;;;;;14.68;2.85;;;7.90;99.90;;;;;;4428554;32;20544;-63
2024/03/04 05:19:33;;;;;;;1.58;1.48;;;7.90;99.90;;;;;;4431665;32;20081;-63
2024/03/04 05:22:00;;;;;;;14.35;2.87;;;7.90;99.90;;;;;;4421286;32;20513;-63
2024/03/04 05:24:25;;;;;;;7.43;2.50;;;7.90;99.90;;;;;;4424878;32;20124;-63
2024/03/04 05:26:51;;;;;;;2.90;1.35;;;7.80;99.90;;;;;;4426585;32;20130;-63
2024/03/04 05:29:16;;;;;;;23.12;2.62;;;7.80;99.90;;;;;;4422837;32;20548;-63
2024/03/04 05:31:53;;;;;;;4.35;1.70;;;7.90;99.90;;;;;;4426093;32;20069;-63
2024/03/04 05:34:19;;;;;;;18.05;1.90;;;7.80;99.90;;;;;;4425523;32;20069;-63
2024/03/04 05:36:44;;;;;;;2.87;1.73;;;7.80;99.90;;;;;;4421567;32;20094;-63
2024/03/04 05:39:10;;;;;;;4.78;3.10;;;7.80;99.90;;;;;;4426218;32;20081;-63
2024/03/04 05:41:37;;;;;;;2.30;1.98;;;7.70;99.90;;;;;;4424403;32;20120;-63
2024/03/04 05:44:03;;;;;;;1.73;1.33;;;7.80;99.90;;;;;;4426639;32;20085;-63
2024/03/04 05:46:30;;;;;;;4.53;2.75;;;7.70;99.90;;;;;;4428925;32;20132;-63
2024/03/04 05:48:55;;;;;;;1.80;1.35;;;7.70;99.90;;;;;;4427151;32;20073;-63
2024/03/04 05:51:21;;;;;;;3.30;2.33;;;7.70;99.90;;;;;;4422561;32;20147;-63
2024/03/04 05:53:48;;;;;;;14.43;4.57;;;7.70;99.90;;;;;;4425177;32;20085;-62
2024/03/04 05:56:14;;;;;;;3.90;2.45;;;7.70;99.90;;;;;;4425346;32;20078;-63
2024/03/04 05:58:40;;;;;;;9.30;2.78;;;7.70;99.90;;;;;;4425152;32;20074;-63
2024/03/04 06:01:06;;;;;;;6.37;2.25;;;7.70;99.90;;;;;;4422471;32;20084;-63
2024/03/04 06:03:31;;;;;;;3.42;2.33;;;7.70;99.90;;;;;;4428508;32;20093;-63
2024/03/04 06:05:57;;;;;;;2.95;2.22;;;7.70;99.90;;;;;;4414093;32;20098;-63
2024/03/04 06:08:22;;;;;;;1.65;1.30;;;7.70;99.90;;;;;;4415958;32;20085;-63
2024/03/04 06:10:48;;;;;;;8.13;2.67;;;7.70;99.90;;;;;;4428502;32;20430;-63
2024/03/04 06:13:13;;;;;;;6.72;2.62;;;7.70;99.90;;;;;;4414806;32;20250;-65
2024/03/04 06:15:39;;;;;;;2.90;1.92;;;7.70;99.90;;;;;;4422304;32;20093;-63
2024/03/04 06:18:05;;;;;;;3.08;2.37;;;7.70;99.90;;;;;;4429299;32;20106;-64
2024/03/04 06:20:30;;;;;;;7.85;2.37;;;7.70;99.90;;;;;;4419392;32;20081;-62
2024/03/04 06:22:56;;;;;;;8.13;3.90;;;7.70;99.90;;;;;;4405215;32;20465;-62
2024/03/04 06:25:22;;;;;;;10.13;3.92;;;7.70;99.90;;;;;;4405121;32;20089;-63
2024/03/04 06:27:49;;;;;;;3.15;2.30;;;7.80;99.90;;;;;;4400188;32;20409;-60
2024/03/04 06:30:16;;;;;;;1.77;1.55;;;7.80;99.90;;;;;;4415801;32;20809;-61
2024/03/04 06:32:41;;;;;;;4.75;1.83;;;7.80;99.90;;;;;;4414450;32;20084;-61
2024/03/04 06:35:08;;;;;;;4.35;2.72;;;7.80;99.90;;;;;;4400794;32;20078;-61
2024/03/04 06:37:34;;;;;;;3.20;1.80;;;7.80;99.90;;;;;;4404669;32;20070;-61
2024/03/04 06:39:59;;;;;;;5.55;2.37;;;7.70;99.90;;;;;;4412049;32;20436;-63
2024/03/04 06:42:25;;;;;;;5.32;3.12;;;7.70;99.90;;;;;;4395865;32;20080;-64
2024/03/04 06:44:51;;;;;;;3.55;1.75;;;7.70;99.90;;;;;;4404669;32;20211;-61
2024/03/04 06:47:16;;;;;;;4.40;2.33;;;7.80;99.90;;;;;;4396166;32;20110;-63
2024/03/04 06:49:42;;;;;;;5.72;2.00;;;7.80;99.90;;;;;;4393511;32;20100;-61
2024/03/04 06:52:08;;;;;;;1.62;1.52;;;7.80;99.90;;;;;;4397054;32;20176;-63
2024/03/04 06:54:34;;;;;;;3.95;2.00;;;7.90;99.90;;;;;;4401018;32;20093;-64
2024/03/04 06:56:59;;;;;;;4.28;2.25;;;7.90;99.90;;;;;;4398993;32;20093;-65
2024/03/04 06:59:26;;;;;;;9.95;2.10;;;7.90;99.90;;;;;;4393814;32;20098;-65
2024/03/04 07:01:52;;;;;;;4.22;2.58;;;7.90;99.90;;;;;;4383048;32;22463;-65
2024/03/04 07:04:17;;;;;;;5.47;2.25;;;7.90;99.90;;;;;;4389828;32;20938;-65
2024/03/04 07:06:43;;;;;;;1.70;1.52;;;8.00;99.90;;;;;;4385374;32;20073;-64
2024/03/04 07:09:09;;;;;;;2.12;1.45;;;8.10;99.90;;;;;;4387245;32;20084;-64
2024/03/04 07:11:34;;;;;;;4.50;1.95;;;8.10;99.90;;;;;;4390489;32;20123;-63
2024/03/04 07:14:00;;;;;;;8.20;3.17;;;8.20;99.90;;;;;;4393025;32;20808;-63
2024/03/04 07:16:25;;;;;;;3.22;1.92;;;8.20;99.90;;;;;;4379708;32;20612;-64
2024/03/04 07:18:52;;;;;;;6.28;2.55;;;8.30;99.90;;;;;;4391445;32;20080;-63
2024/03/04 07:21:20;;;;;;;7.68;2.67;;;8.30;99.90;;;;;;4386549;32;20529;-64
2024/03/04 07:23:46;;;;;;;2.87;1.77;;;8.30;99.90;;;;;;4390578;32;21089;-64
2024/03/04 07:26:13;;;;;;;1.58;1.45;;;8.40;99.90;;;;;;4389714;32;20344;-65
2024/03/04 07:28:41;;;;;;;5.00;1.80;;;8.40;99.90;;;;;;4384260;32;20108;-63
2024/03/04 07:31:07;;;;;;;4.22;2.58;;;8.50;99.90;;;;;;4390696;32;20077;-65
2024/03/04 07:33:33;;;;;;;3.30;2.05;;;8.60;99.90;;;;;;4394218;32;20175;-65
2024/03/04 07:35:59;;;;;;;11.88;2.12;;;8.60;99.90;;;;;;4387130;32;21436;-63
2024/03/04 07:38:24;;;;;;;4.87;1.85;;;8.60;99.90;;;;;;4384693;32;20829;-64
2024/03/04 07:40:50;;;;;;;7.00;2.55;;;8.60;99.90;;;;;;4382281;32;20434;-65
2024/03/04 07:43:15;;;;;;;2.28;1.77;;;8.60;99.90;;;;;;4390722;32;20998;-65
2024/03/04 07:45:40;;;;;;;25.60;4.15;;;8.70;99.90;;;;;;4384791;32;20121;-65
2024/03/04 07:48:06;;;;;;;14.63;3.20;;;8.80;99.90;;;;;;4372415;32;20808;-65
2024/03/04 07:50:32;;;;;;;14.77;2.60;;;8.90;99.90;;;;;;4379212;32;20243;-64
2024/03/04 07:52:58;;;;;;;2.12;1.90;;;8.90;99.90;;;;;;4383796;32;20102;-64
2024/03/04 07:55:23;;;;;;;1.52;1.25;;;9.00;99.90;;;;;;4379957;32;20113;-65
2024/03/04 07:57:50;;;;;;;4.60;3.33;;;9.00;99.90;;;;;;4376826;32;20085;-64
2024/03/04 08:00:16;;;;;;;3.72;2.15;;;9.10;99.90;;;;;;4378689;32;20114;-64
2024/03/04 08:02:42;;;;;;;9.40;2.97;;;9.00;99.90;;;;;;4387873;32;20375;-63
2024/03/04 08:05:09;;;;;;;5.78;2.60;;;9.00;99.90;;;;;;4389260;32;20772;-63
2024/03/04 08:07:35;;;;;;;3.00;1.73;;;9.10;99.90;;;;;;4382177;32;20737;-64
2024/03/04 08:10:00;;;;;;;4.57;2.87;;;9.10;99.90;;;;;;4388517;32;20309;-63
2024/03/04 08:12:26;;;;;;;20.27;2.03;;;9.20;99.90;;;;;;4384906;32;20097;-64
2024/03/04 08:14:51;;;;;;;15.77;3.20;;;9.40;99.90;;;;;;4380340;32;20140;-63
2024/03/04 08:17:17;;;;;;;3.28;2.42;;;9.30;99.90;;;;;;4383576;32;20111;-64
2024/03/04 08:19:45;;;;;;;1.55;1.40;;;9.40;99.90;;;;;;4377437;32;20097;-64
2024/03/04 08:22:10;;;;;;;6.25;3.58;;;9.40;99.90;;;;;;4376803;32;20090;-65
2024/03/04 08:24:36;;;;;;;5.95;2.95;;;9.40;99.90;;;;;;4382885;32;20574;-65
2024/03/04 08:27:02;;;;;;;17.48;3.90;;;9.50;99.90;;;;;;4383533;32;20199;-64
2024/03/04 08:29:28;;;;;;;1.87;1.65;;;9.60;99.90;;;;;;4391204;32;20454;-64
2024/03/04 08:31:53;;;;;;;6.47;2.67;;;9.80;99.90;;;;;;4392494;32;20138;-65
2024/03/04 08:34:19;;;;;;;6.40;2.00;;;9.80;99.90;;;;;;4388135;32;20078;-65
2024/03/04 08:36:45;;;;;;;5.15;2.58;;;9.90;99.90;;;;;;4384729;32;20085;-65
2024/03/04 08:39:10;;;;;;;3.20;1.85;;;10.00;99.90;;;;;;4392570;32;20210;-64
2024/03/04 08:41:51;;;;;;;2.53;2.12;;;10.10;99.90;;;;;;4401848;32;20481;-64
2024/03/04 08:44:17;;;;;;;2.33;1.83;;;10.20;99.90;;;;;;4382609;32;20113;-64
2024/03/04 08:46:43;;;;;;;3.00;2.03;;;10.30;99.90;;;;;;4378881;32;20121;-64
2024/03/04 08:49:09;;;;;;;12.00;2.42;;;10.30;99.90;;;;;;4375452;32;20097;-65
2024/03/04 08:51:35;;;;;;;3.92;2.03;;;10.50;99.90;;;;;;4373323;32;20667;-62
2024/03/04 08:54:00;;;;;;;7.25;2.97;;;10.50;99.90;;;;;;4374361;32;20684;-64
2024/03/04 08:56:27;;;;;;;6.25;3.50;;;10.70;99.90;;;;;;4366766;32;20117;-64
2024/03/04 08:58:57;;;;;;;4.22;1.60;;;10.70;99.90;;;;;;4389361;32;20544;-64
2024/03/04 09:01:25;;;;;;;39.58;3.12;;;10.80;99.90;;;;;;4385346;32;20418;-64
2024/03/04 09:03:51;;;;;;;3.92;2.17;;;10.80;99.90;;;;;;4375267;32;20186;-65
2024/03/04 09:06:17;;;;;;;5.97;2.53;;;10.90;99.90;;;;;;4389287;32;20081;-68
2024/03/04 09:08:43;;;;;;;3.35;2.28;;;11.00;99.90;;;;;;4393135;32;20085;-65
2024/03/04 09:11:10;;;;;;;3.92;2.15;;;11.00;99.90;;;;;;4387233;32;20086;-62
2024/03/04 09:13:36;;;;;;;3.47;2.25;;;11.10;99.90;;;;;;4397048;32;20719;-63
2024/03/04 09:16:04;;;;;;;11.43;2.28;;;11.10;99.90;;;;;;4383793;32;20844;-63
2024/03/04 09:18:30;;;;;;;5.87;2.42;;;11.20;99.90;;;;;;4387004;32;20188;-64
2024/03/04 09:20:57;;;;;;;1.87;1.77;;;11.20;99.90;;;;;;4387511;32;20077;-65
2024/03/04 09:23:24;;;;;;;10.73;3.65;;;11.30;99.90;;;;;;4397902;32;20082;-65
2024/03/04 09:25:50;;;;;;;3.10;1.65;;;11.40;99.90;;;;;;4376225;32;20069;-63
2024/03/04 09:28:15;;;;;;;5.75;1.95;;;11.60;99.90;;;;;;4388589;32;20452;-65
2024/03/04 09:30:41;;;;;;;3.40;2.15;;;11.60;99.90;;;;;;4373974;32;21259;-64
2024/03/04 09:33:07;;;;;;;2.83;1.65;;;11.60;99.90;;;;;;4399533;32;20132;-64
2024/03/04 09:35:34;;;;;;;5.70;2.50;;;11.70;99.90;;;;;;4373749;32;20867;-64
2024/03/04 09:37:59;;;;;;;3.85;1.90;;;11.90;99.90;;;;;;4364553;32;20222;-64
2024/03/04 09:40:25;;;;;;;5.35;1.55;;;12.00;99.90;;;;;;4365531;32;20086;-64
2024/03/04 09:42:51;;;;;;;5.70;1.80;;;12.20;99.90;;;;;;4366989;32;20109;-62
2024/03/04 09:45:19;;;;;;;3.40;2.25;;;12.30;99.90;;;;;;4385649;32;20172;-63
2024/03/04 09:47:49;;;;;;;36.33;3.58;;;12.30;99.90;;;;;;4382888;32;20409;-63
2024/03/04 09:50:17;;;;;;;4.93;2.40;;;12.40;99.90;;;;;;4396050;32;20102;-62
2024/03/04 09:52:46;;;;;;;9.80;2.45;;;12.60;99.90;;;;;;4370405;32;20140;-63
2024/03/04 09:55:11;;;;;;;6.20;2.50;;;12.70;99.90;;;;;;4366128;32;20136;-64
2024/03/04 09:57:37;;;;;;;3.67;2.30;;;12.80;99.90;;;;;;4382786;32;20296;-63
2024/03/04 10:00:03;;;;;;;2.83;2.05;;;12.90;99.90;;;;;;4389074;32;20113;-65
2024/03/04 10:02:29;;;;;;;5.78;2.12;;;13.00;99.90;;;;;;4381317;32;20098;-63
2024/03/04 10:04:56;;;;;;;6.53;2.60;;;13.10;99.90;;;;;;4368312;32;20086;-64
2024/03/04 10:07:22;;;;;;;4.12;2.37;;;13.20;99.90;;;;;;4383639;32;20094;-65
2024/03/04 10:09:53;;;;;;;15.38;2.40;;;13.50;99.90;;;;;;4384384;32;20089;-65
2024/03/04 10:12:18;;;;;;;4.90;2.87;;;13.60;99.90;;;;;;4372313;32;20089;-64
2024/03/04 10:15:06;;;;;;;11.15;3.28;;;13.50;99.90;;;;;;4384512;32;20600;-63
2024/03/04 10:17:32;;;;;;;9.82;2.10;;;13.70;99.90;;;;;;4375943;32;20101;-64
2024/03/04 10:20:00;;;;;;;4.72;2.10;;;13.60;99.90;;;;;;4379329;32;20097;-63
2024/03/04 10:22:32;;;;;;;3.08;1.90;;;13.80;99.90;;;;;;4359807;32;20386;-63
2024/03/04 10:25:02;;;;;;;5.47;2.95;;;14.00;99.90;;;;;;4375324;32;20184;-61
2024/03/04 10:27:28;;;;;;;5.30;3.03;;;14.30;99.90;;;;;;4379055;32;20651;-63
2024/03/04 10:30:14;;;;;;;5.28;2.37;;;14.30;99.90;;;;;;4387336;32;20618;-61
2024/03/04 10:32:46;;;;;;;1.90;1.67;;;14.40;99.90;;;;;;4375398;32;20078;-65
2024/03/04 10:35:13;;;;;;;3.85;2.35;;;14.40;99.90;;;;;;4374586;32;20152;-61
2024/03/04 10:37:39;;;;;;;6.70;2.33;;;14.30;99.90;;;;;;4383269;32;20098;-64
2024/03/04 10:40:09;;;;;;;7.47;2.22;;;14.10;99.90;;;;;;4365129;32;20085;-63
2024/03/04 10:42:34;;;;;;;6.03;2.60;;;14.20;99.90;;;;;;4389338;32;20239;-63
2024/03/04 10:45:04;;;;;;;3.62;1.98;;;14.30;99.90;;;;;;4383555;32;20779;-63
2024/03/04 10:47:32;;;;;;;3.45;1.98;;;14.40;99.90;;;;;;4390124;32;20076;-63
2024/03/04 10:49:58;;;;;;;9.98;3.97;;;14.30;99.90;;;;;;4379049;32;20073;-64
2024/03/04 10:52:24;;;;;;;3.75;2.53;;;14.50;99.90;;;;;;4376795;32;21019;-62
2024/03/04 10:54:49;;;;;;;19.15;2.58;;;14.50;99.90;;;;;;4380391;32;20070;-62
2024/03/04 10:57:27;;;;;;;3.75;1.48;;;14.60;99.90;;;;;;4368005;32;20179;-63
2024/03/04 10:59:58;;;;;;;3.80;2.17;;;14.60;99.90;;;;;;4374087;32;20143;-61
2024/03/04 11:02:37;;;;;;;1.87;1.50;;;14.70;99.90;;;;;;4390374;32;20089;-60
2024/03/04 11:05:08;;;;;;;1.98;1.55;;;14.40;99.90;;;;;;4371634;32;20081;-61
2024/03/04 11:07:40;;;;;;;5.15;2.22;;;14.60;99.90;;;;;;4392907;32;20069;-61
2024/03/04 11:10:14;;;;;;;2.78;2.33;;;14.70;99.90;;;;;;4365703;32;20069;-63
2024/03/04 11:12:43;;;;;;;7.60;3.60;;;14.70;99.90;;;;;;4380612;32;20180;-62
2024/03/04 11:15:11;;;;;;;2.67;1.52;;;14.90;99.90;;;;;;4372564;32;20074;-63
2024/03/04 11:17:42;;;;;;;10.05;3.08;;;15.10;99.90;;;;;;4388135;32;20078;-63
2024/03/04 11:20:09;;;;;;;5.05;1.92;;;15.30;99.90;;;;;;4380072;32;20499;-61
2024/03/04 11:22:38;;;;;;;5.00;1.83;;;15.40;99.90;;;;;;4390541;32;20206;-63
2024/03/04 11:25:05;;;;;;;5.95;2.65;;;15.70;99.90;;;;;;4394611;32;21042;-63
2024/03/04 11:27:32;;;;;;;7.25;2.75;;;16.00;99.90;;;;;;4400759;32;20073;-64
2024/03/04 11:29:59;;;;;;;6.70;2.72;;;15.90;99.90;;;;;;4371596;32;20800;-60
2024/03/04 11:32:29;;;;;;;11.45;2.85;;;16.00;99.90;;;;;;4395214;32;20102;-61
2024/03/04 11:35:05;;;;;;;11.40;4.35;;;15.80;99.90;;;;;;4397221;32;20644;-62
2024/03/04 11:37:49;;;;;;;2.37;1.60;;;15.70;99.90;;;;;;4389624;32;20082;-63
2024/03/04 11:40:14;;;;;;;4.45;2.45;;;15.80;99.90;;;;;;4400563;32;20097;-63
2024/03/04 11:42:43;;;;;;;8.57;3.95;;;15.90;99.90;;;;;;4395885;32;20120;-66
2024/03/04 11:45:12;;;;;;;5.57;2.17;;;15.60;99.90;;;;;;4400365;32;20102;-62
2024/03/04 11:47:38;;;;;;;10.90;2.30;;;15.40;99.90;;;;;;4400653;32;20113;-63
2024/03/04 11:50:05;;;;;;;13.55;3.30;;;15.40;99.90;;;;;;4395693;32;20524;-63
2024/03/04 11:52:35;;;;;;;2.20;1.20;;;15.30;99.90;;;;;;4394095;32;152836;-65
2024/03/04 11:55:00;;;;;;;6.00;2.92;;;15.40;99.90;;;;;;4378695;32;20066;-64
2024/03/04 11:57:26;;;;;;;5.55;2.53;;;15.20;99.90;;;;;;4372000;32;20089;-64
2024/03/04 12:02:37;;;;;;;18.10;2.83;;;15.00;99.90;;;;;;4375579;32;20706;-64
2024/03/04 12:05:03;;;;;;;4.80;2.08;;;14.90;99.90;;;;;;4396166;32;20109;-64
2024/03/04 12:07:29;;;;;;;5.65;2.22;;;15.10;99.90;;;;;;4395178;32;20139;-65
2024/03/04 12:10:00;;;;;;;6.35;1.85;;;15.30;99.90;;;;;;4399710;32;20945;-66
2024/03/04 12:12:27;;;;;;;1.83;1.50;;;15.90;99.90;;;;;;4377571;32;20101;-62
2024/03/04 12:14:53;;;;;;;7.90;2.90;;;16.30;99.90;;;;;;4392203;32;20093;-61
2024/03/04 12:17:19;;;;;;;3.28;2.12;;;16.40;99.90;;;;;;4390977;32;20187;-61
2024/03/04 12:19:56;;;;;;;3.25;2.12;;;16.50;99.90;;;;;;4383112;32;20153;-61
2024/03/04 12:22:26;;;;;;;4.65;1.87;;;16.50;99.90;;;;;;4397023;32;20089;-61
2024/03/04 12:25:03;;;;;;;6.55;2.17;;;16.80;99.90;;;;;;4376436;32;20116;-61
2024/03/04 12:27:30;;;;;;;9.25;3.28;;;17.10;99.90;;;;;;4392415;32;20086;-62
2024/03/04 12:30:17;;;;;;;6.15;2.15;;;17.10;99.90;;;;;;4396773;32;20454;-61
2024/03/04 12:32:48;;;;;;;7.10;3.25;;;17.40;99.90;;;;;;4382323;32;20073;-62
2024/03/04 12:35:19;;;;;;;1.87;1.50;;;17.70;99.90;;;;;;4398796;32;20089;-61
2024/03/04 12:37:47;;;;;;;2.97;1.92;;;17.80;99.90;;;;;;4396503;32;20145;-64
2024/03/04 12:40:13;;;;;;;13.88;2.97;;;17.90;99.90;;;;;;4395987;32;20410;-63
2024/03/04 12:42:39;;;;;;;7.55;1.92;;;18.00;99.90;;;;;;4392020;32;20342;-62
2024/03/04 12:45:05;;;;;;;6.37;1.83;;;17.50;99.90;;;;;;4383845;32;20939;-62
2024/03/04 12:47:34;;;;;;;3.10;1.70;;;17.30;99.90;;;;;;4382042;32;21338;-62
2024/03/04 12:50:02;;;;;;;8.48;3.28;;;17.30;99.90;;;;;;4387753;32;20086;-62
2024/03/04 12:52:27;;;;;;;6.53;2.37;;;17.50;99.90;;;;;;4378455;32;20081;-62
2024/03/04 12:54:53;;;;;;;5.18;2.70;;;17.90;99.90;;;;;;4366848;32;22075;-61